createdAt,value
2022-11-16T00:01:03.126Z,4.80
2022-11-16T00:05:23.123Z,4.70
2022-11-16T00:09:44.318Z,4.50
2022-11-16T00:14:01.566Z,4.50
2022-11-16T00:18:18.757Z,4.50
2022-11-16T00:22:35.991Z,4.50
2022-11-16T00:26:54.833Z,4.60
2022-11-16T00:31:12.113Z,4.60
2022-11-16T00:35:29.374Z,4.40
2022-11-16T00:39:46.598Z,4.50
2022-11-16T00:44:03.888Z,4.40
2022-11-16T00:48:21.376Z,4.50
2022-11-16T00:52:38.635Z,4.60
2022-11-16T00:56:55.797Z,4.60
2022-11-16T01:01:13.761Z,4.70
2022-11-16T01:05:31.424Z,4.70
2022-11-16T01:09:48.644Z,4.60
2022-11-16T01:14:09.219Z,4.60
2022-11-16T01:18:26.357Z,4.50
2022-11-16T01:22:43.935Z,4.50
2022-11-16T01:27:01.227Z,4.50
2022-11-16T01:31:18.522Z,4.50
2022-11-16T01:35:35.710Z,4.40
2022-11-16T01:39:52.979Z,4.40
2022-11-16T01:44:33.991Z,4.50
2022-11-16T01:48:59.874Z,4.60
2022-11-16T01:53:17.570Z,4.50
2022-11-16T01:57:39.888Z,4.50
2022-11-16T02:02:00.001Z,4.60
2022-11-16T02:06:42.156Z,4.70
2022-11-16T02:11:23.446Z,4.70
2022-11-16T02:15:45.278Z,4.90
2022-11-16T02:20:39.276Z,5.10
2022-11-16T02:25:17.198Z,5.10
2022-11-16T02:29:45.828Z,5.20
2022-11-16T02:34:05.662Z,5.20
2022-11-16T02:38:27.671Z,5.30
2022-11-16T02:42:56.107Z,5.10
2022-11-16T02:47:19.559Z,5.10
2022-11-16T02:51:38.262Z,5.10
2022-11-16T02:55:56.383Z,5.20
2022-11-16T03:00:43.499Z,5.20
2022-11-16T03:05:16.111Z,5.10
2022-11-16T03:09:36.721Z,5.00
2022-11-16T03:14:06.555Z,5.00
2022-11-16T03:18:26.967Z,5.00
2022-11-16T03:22:47.212Z,5.00
2022-11-16T03:27:24.722Z,5.00
2022-11-16T03:31:48.718Z,4.90
2022-11-16T03:36:13.047Z,4.90
2022-11-16T03:40:33.538Z,5.00
2022-11-16T03:44:51.711Z,5.10
2022-11-16T03:49:09.053Z,5.10
2022-11-16T03:53:26.244Z,5.10
2022-11-16T03:57:43.707Z,5.10
2022-11-16T04:02:00.918Z,5.20
2022-11-16T04:06:36.950Z,5.30
2022-11-16T04:11:13.012Z,5.40
2022-11-16T04:15:48.811Z,5.40
2022-11-16T04:20:24.738Z,5.40
2022-11-16T04:24:45.616Z,5.40
2022-11-16T04:29:02.821Z,5.50
2022-11-16T04:33:38.867Z,5.50
2022-11-16T04:37:58.314Z,5.50
2022-11-16T04:42:22.269Z,5.50
2022-11-16T04:46:58.287Z,5.50
2022-11-16T04:51:15.444Z,5.50
2022-11-16T04:55:33.244Z,5.50
2022-11-16T04:59:50.411Z,5.50
2022-11-16T05:04:07.599Z,5.50
2022-11-16T05:08:25.507Z,5.50
2022-11-16T05:12:42.857Z,5.50
2022-11-16T05:17:00.043Z,5.60
2022-11-16T05:21:17.214Z,5.60
2022-11-16T05:25:37.015Z,5.60
2022-11-16T05:29:55.120Z,5.50
2022-11-16T05:34:12.646Z,5.50
2022-11-16T05:38:29.849Z,5.50
2022-11-16T05:42:47.117Z,5.50
2022-11-16T05:47:04.614Z,5.60
2022-11-16T05:51:21.850Z,5.70
2022-11-16T05:55:39.119Z,5.80
2022-11-16T05:59:56.286Z,5.80
2022-11-16T06:04:14.259Z,5.70
2022-11-16T06:08:32.122Z,5.70
2022-11-16T06:12:49.471Z,5.70
2022-11-16T06:17:06.654Z,5.70
2022-11-16T06:21:23.954Z,5.60
2022-11-16T06:25:41.378Z,5.60
2022-11-16T06:29:58.621Z,5.50
2022-11-16T06:34:15.979Z,5.40
2022-11-16T06:38:33.631Z,5.40
2022-11-16T06:42:51.213Z,5.50
2022-11-16T06:47:08.408Z,5.60
2022-11-16T06:51:26.070Z,5.70
2022-11-16T06:55:43.398Z,5.80
2022-11-16T07:00:01.005Z,5.80
2022-11-16T07:04:18.313Z,5.90
2022-11-16T07:08:36.381Z,5.90
2022-11-16T07:12:53.787Z,5.90
2022-11-16T07:17:11.391Z,6.00
2022-11-16T07:21:29.181Z,6.00
2022-11-16T07:25:47.256Z,6.10
2022-11-16T07:30:05.582Z,6.20
2022-11-16T07:34:22.834Z,6.30
2022-11-16T07:38:40.182Z,6.30
2022-11-16T07:42:58.591Z,6.30
2022-11-16T07:47:15.784Z,6.40
2022-11-16T07:51:33.172Z,6.50
2022-11-16T07:55:54.395Z,6.50
2022-11-16T08:00:12.019Z,6.60
2022-11-16T08:04:29.208Z,6.70
2022-11-16T08:08:46.399Z,6.80
2022-11-16T08:13:04.075Z,6.90
2022-11-16T08:17:21.315Z,6.90
2022-11-16T08:21:38.765Z,6.90
2022-11-16T08:26:07.778Z,7.00
2022-11-16T08:30:24.972Z,7.20
2022-11-16T08:34:42.189Z,7.10
2022-11-16T08:38:59.374Z,7.20
2022-11-16T08:43:16.549Z,7.20
2022-11-16T08:47:33.844Z,7.30
2022-11-16T08:51:51.053Z,7.30
2022-11-16T08:56:12.452Z,7.40
2022-11-16T09:00:29.715Z,7.40
2022-11-16T09:04:47.117Z,7.50
2022-11-16T09:09:04.968Z,7.50
2022-11-16T09:13:22.155Z,7.50
2022-11-16T09:17:39.355Z,7.70
2022-11-16T09:21:56.626Z,7.80
2022-11-16T09:26:14.486Z,7.90
2022-11-16T09:30:31.757Z,7.90
2022-11-16T09:34:49.258Z,7.90
2022-11-16T09:44:02.587Z,8.20
2022-11-16T09:48:21.786Z,8.20
2022-11-16T09:52:44.441Z,8.20
2022-11-16T09:57:12.068Z,8.20
2022-11-16T10:01:47.788Z,8.30
2022-11-16T10:06:16.662Z,8.20
2022-11-16T10:10:38.404Z,8.20
2022-11-16T10:15:32.400Z,8.10
2022-11-16T10:20:34.206Z,8.10
2022-11-16T10:24:59.535Z,8.10
2022-11-16T10:29:43.293Z,8.20
2022-11-16T10:34:02.398Z,7.90
2022-11-16T10:38:24.223Z,7.70
2022-11-16T10:42:41.471Z,7.50
2022-11-16T10:47:05.984Z,7.50
2022-11-16T10:51:23.409Z,7.70
2022-11-16T10:55:40.641Z,8.10
2022-11-16T10:59:59.073Z,7.90
2022-11-16T11:04:31.593Z,7.90
2022-11-16T11:08:48.851Z,8.00
2022-11-16T11:13:11.902Z,8.00
2022-11-16T11:17:30.624Z,8.00
2022-11-16T11:21:48.253Z,8.30
2022-11-16T11:26:05.658Z,8.50
2022-11-16T11:30:23.118Z,8.30
2022-11-16T11:34:47.216Z,8.10
2022-11-16T11:39:13.587Z,8.30
2022-11-16T11:43:33.551Z,8.20
2022-11-16T11:48:01.719Z,8.20
2022-11-16T11:52:29.655Z,8.30
2022-11-16T11:56:46.840Z,7.90
2022-11-16T12:01:25.932Z,7.80
2022-11-16T12:06:06.833Z,7.90
2022-11-16T12:10:30.130Z,7.80
2022-11-16T12:15:00.070Z,7.90
2022-11-16T12:19:25.812Z,7.80
2022-11-16T12:23:55.518Z,7.90
2022-11-16T12:28:21.495Z,8.00
2022-11-16T12:33:03.378Z,8.00
2022-11-16T12:37:29.735Z,7.90
2022-11-16T12:42:03.868Z,8.00
2022-11-16T12:46:38.209Z,7.80
2022-11-16T12:51:18.308Z,7.90
2022-11-16T12:55:59.178Z,7.90
2022-11-16T13:00:18.917Z,8.00
2022-11-16T13:04:47.317Z,8.10
2022-11-16T13:09:15.571Z,8.10
2022-11-16T13:13:36.666Z,8.00
2022-11-16T13:18:01.674Z,8.00
2022-11-16T13:22:24.211Z,8.00
2022-11-16T13:26:54.394Z,8.10
2022-11-16T13:31:19.812Z,8.20
2022-11-16T13:35:38.462Z,8.20
2022-11-16T13:39:58.416Z,8.20
2022-11-16T13:44:20.148Z,8.20
2022-11-16T13:48:44.320Z,8.30
2022-11-16T13:53:57.746Z,8.20
2022-11-16T13:57:54.746Z,8.20
2022-11-16T14:02:39.393Z,8.00
2022-11-16T14:06:58.865Z,8.00
2022-11-16T14:11:39.269Z,8.00
2022-11-16T14:16:15.102Z,7.90
2022-11-16T14:21:04.886Z,8.00
2022-11-16T14:25:33.657Z,8.00
2022-11-16T14:29:56.783Z,8.00
2022-11-16T14:34:21.476Z,7.90
2022-11-16T14:38:41.901Z,7.90
2022-11-16T14:43:21.531Z,7.90
2022-11-16T14:47:39.630Z,7.90
2022-11-16T14:51:59.839Z,7.80
2022-11-16T14:56:19.123Z,7.80
2022-11-16T15:00:38.323Z,7.80
2022-11-16T15:04:55.852Z,7.70
2022-11-16T15:09:32.571Z,7.70
2022-11-16T15:13:50.662Z,7.70
2022-11-16T15:18:14.877Z,7.70
2022-11-16T15:22:39.659Z,7.70
2022-11-16T15:27:08.232Z,7.80
2022-11-16T15:31:25.875Z,7.70
2022-11-16T15:35:43.709Z,7.70
2022-11-16T15:40:03.307Z,7.70
2022-11-16T15:44:24.488Z,7.70
2022-11-16T15:48:43.452Z,7.70
2022-11-16T15:53:01.017Z,7.70
2022-11-16T15:57:20.001Z,7.70
2022-11-16T16:01:45.120Z,7.70
2022-11-16T16:06:04.424Z,7.70
2022-11-16T16:10:24.595Z,7.70
2022-11-16T16:14:42.821Z,7.80
2022-11-16T16:19:09.262Z,7.80
2022-11-16T16:23:30.221Z,7.80
2022-11-16T16:27:48.696Z,7.90
2022-11-16T16:32:08.443Z,7.90
2022-11-16T16:36:25.950Z,7.90
2022-11-16T16:40:43.508Z,7.90
2022-11-16T16:45:02.246Z,7.90
2022-11-16T16:49:19.734Z,7.90
2022-11-16T16:53:37.470Z,7.90
2022-11-16T16:57:57.510Z,7.90
2022-11-16T17:02:16.245Z,8.00
2022-11-16T17:06:33.750Z,8.00
2022-11-16T17:10:51.120Z,8.00
2022-11-16T17:15:09.637Z,7.90
2022-11-16T17:19:28.370Z,7.90
2022-11-16T17:23:45.691Z,7.90
2022-11-16T17:28:03.204Z,7.90
2022-11-16T17:32:21.741Z,7.90
2022-11-16T17:36:39.325Z,7.90
2022-11-16T17:41:14.875Z,8.10
2022-11-16T17:45:32.230Z,7.90
2022-11-16T17:49:49.783Z,7.90
2022-11-16T17:54:07.136Z,7.90
2022-11-16T17:58:25.715Z,7.90
2022-11-16T18:02:43.156Z,7.90
2022-11-16T18:07:01.286Z,7.90
2022-11-16T18:11:24.423Z,7.90
2022-11-16T18:15:42.648Z,7.90
2022-11-16T18:20:00.230Z,7.90
2022-11-16T18:24:17.698Z,7.90
2022-11-16T18:28:35.059Z,7.90
2022-11-16T18:32:52.290Z,7.90
2022-11-16T18:37:09.549Z,7.90
2022-11-16T18:41:28.963Z,7.90
2022-11-16T18:45:46.205Z,7.90
2022-11-16T18:50:06.094Z,7.90
2022-11-16T18:54:23.275Z,7.90
2022-11-16T18:58:50.814Z,8.00
2022-11-16T19:03:11.254Z,8.10
2022-11-16T19:07:28.969Z,8.00
2022-11-16T19:11:46.487Z,8.10
2022-11-16T19:16:04.001Z,8.00
2022-11-16T19:20:21.333Z,8.00
2022-11-16T19:24:38.613Z,7.90
2022-11-16T19:28:55.987Z,7.80
2022-11-16T19:33:14.835Z,7.80
2022-11-16T19:37:32.121Z,7.80
2022-11-16T19:41:49.354Z,7.70
2022-11-16T19:46:12.227Z,7.70
2022-11-16T19:50:29.486Z,7.80
2022-11-16T19:54:46.794Z,7.90
2022-11-16T19:59:04.074Z,7.80
2022-11-16T20:03:21.250Z,7.90
2022-11-16T20:07:38.806Z,7.90
2022-11-16T20:11:56.828Z,7.90
2022-11-16T20:16:15.865Z,7.80
2022-11-16T20:20:33.046Z,7.70
2022-11-16T20:24:50.300Z,7.60
2022-11-16T20:29:07.579Z,7.60
2022-11-16T20:33:24.906Z,7.70
2022-11-16T20:37:43.358Z,7.80
2022-11-16T20:42:00.593Z,7.80
2022-11-16T20:46:19.079Z,7.70
2022-11-16T20:50:36.340Z,7.50
2022-11-16T20:54:53.838Z,7.60
2022-11-16T20:59:11.062Z,7.50
2022-11-16T21:03:28.995Z,7.50
2022-11-16T21:07:46.383Z,7.50
2022-11-16T21:12:22.395Z,7.50
2022-11-16T21:16:40.110Z,7.40
2022-11-16T21:21:04.110Z,7.40
2022-11-16T21:25:21.282Z,7.50
2022-11-16T21:29:38.558Z,7.40
2022-11-16T21:33:56.658Z,7.40
2022-11-16T21:38:13.835Z,7.40
2022-11-16T21:42:31.236Z,7.30
2022-11-16T21:46:48.431Z,7.20
2022-11-16T21:51:13.034Z,7.20
2022-11-16T21:55:30.421Z,7.10
2022-11-16T21:59:47.594Z,7.10
2022-11-16T22:04:43.523Z,7.20
2022-11-16T22:09:01.637Z,7.20
2022-11-16T22:13:19.917Z,7.20
2022-11-16T22:17:41.159Z,7.20
2022-11-16T22:21:59.421Z,7.20
2022-11-16T22:26:16.766Z,7.30
2022-11-16T22:30:34.087Z,7.30
2022-11-16T22:34:51.437Z,7.20
2022-11-16T22:39:08.622Z,7.20
2022-11-16T22:43:29.660Z,7.20
2022-11-16T22:47:49.700Z,7.20
2022-11-16T22:52:10.816Z,7.30
2022-11-16T22:56:29.493Z,7.30
2022-11-16T23:00:46.644Z,7.20
2022-11-16T23:05:04.018Z,7.30
2022-11-16T23:09:21.256Z,7.10
2022-11-16T23:13:57.237Z,7.10
2022-11-16T23:18:14.858Z,7.10
2022-11-16T23:22:50.797Z,7.30
2022-11-16T23:27:28.588Z,7.30
2022-11-16T23:31:45.855Z,7.40
2022-11-16T23:36:03.161Z,7.40
2022-11-16T23:40:21.790Z,7.50
2022-11-16T23:44:38.951Z,7.40
2022-11-16T23:48:56.900Z,7.30
2022-11-16T23:53:14.515Z,7.30
2022-11-16T23:57:31.703Z,7.30
